createdAt,value
2016-09-28T00:00:26.952Z,0
2016-09-28T00:01:26.934Z,0
2016-09-28T00:02:25.920Z,0
2016-09-28T00:03:25.736Z,0
2016-09-28T00:04:26.811Z,0
2016-09-28T00:05:26.391Z,0
2016-09-28T00:06:26.392Z,0
2016-09-28T00:07:25.807Z,0
2016-09-28T00:08:26.348Z,0
2016-09-28T00:09:26.412Z,0
2016-09-28T00:10:25.854Z,0
2016-09-28T00:11:25.845Z,0
2016-09-28T00:12:26.345Z,0
2016-09-28T00:13:27.048Z,0
2016-09-28T00:14:27.336Z,0
2016-09-28T00:15:26.947Z,0
2016-09-28T00:16:26.412Z,0
2016-09-28T00:17:26.347Z,0
2016-09-28T00:18:26.286Z,0
2016-09-28T00:19:26.511Z,0
2016-09-28T00:20:26.248Z,0
2016-09-28T00:21:26.139Z,0
2016-09-28T00:22:26.402Z,0
2016-09-28T00:23:27.069Z,0
2016-09-28T00:24:25.934Z,0
2016-09-28T00:25:26.353Z,0
2016-09-28T00:26:27.095Z,0
2016-09-28T00:27:27.025Z,0
2016-09-28T00:28:26.415Z,0
2016-09-28T00:29:26.714Z,0
2016-09-28T00:30:26.750Z,0
2016-09-28T00:31:26.982Z,0
2016-09-28T00:32:26.342Z,0
2016-09-28T00:33:27.333Z,0
2016-09-28T00:34:27.832Z,0
2016-09-28T00:35:26.215Z,0
2016-09-28T00:36:27.131Z,0
2016-09-28T00:37:26.818Z,0
2016-09-28T00:38:27.255Z,0
2016-09-28T00:39:26.875Z,0
2016-09-28T00:40:26.858Z,0
2016-09-28T00:41:26.999Z,0
2016-09-28T00:42:26.576Z,0
2016-09-28T00:43:26.510Z,0
2016-09-28T00:44:27.292Z,0
2016-09-28T00:45:27.030Z,0
2016-09-28T00:46:27.145Z,0
2016-09-28T00:47:27.453Z,0
2016-09-28T00:48:28.239Z,0
2016-09-28T00:49:27.758Z,0
2016-09-28T00:50:28.387Z,0
2016-09-28T00:51:28.210Z,0
2016-09-28T00:52:26.996Z,0
2016-09-28T00:53:26.780Z,0
2016-09-28T00:54:27.723Z,0
2016-09-28T00:55:27.012Z,0
2016-09-28T00:56:28.093Z,0
2016-09-28T00:57:27.757Z,0
2016-09-28T00:58:26.548Z,0
2016-09-28T00:59:26.914Z,0
2016-09-28T01:00:27.237Z,0
2016-09-28T01:01:26.485Z,0
2016-09-28T01:02:27.441Z,0
2016-09-28T01:03:27.342Z,0
2016-09-28T01:04:27.651Z,0
2016-09-28T01:05:27.099Z,0
2016-09-28T01:06:27.195Z,0
2016-09-28T01:07:26.766Z,0
2016-09-28T01:08:27.725Z,0
2016-09-28T01:09:27.147Z,0
2016-09-28T01:10:28.533Z,0
2016-09-28T01:11:27.099Z,0
2016-09-28T01:12:29.573Z,0
2016-09-28T01:13:27.955Z,0
2016-09-28T01:14:26.998Z,0
2016-09-28T01:15:27.735Z,0
2016-09-28T01:16:27.569Z,0
2016-09-28T01:17:27.422Z,0
2016-09-28T01:18:27.767Z,0
2016-09-28T01:19:27.925Z,0
2016-09-28T01:20:27.355Z,0
2016-09-28T01:21:27.043Z,0
2016-09-28T01:22:27.016Z,0
2016-09-28T01:23:27.619Z,0
2016-09-28T01:24:28.390Z,0
2016-09-28T01:25:27.326Z,0
2016-09-28T01:26:26.818Z,0
2016-09-28T01:27:27.456Z,0
2016-09-28T01:28:28.059Z,0
2016-09-28T01:29:28.656Z,0
2016-09-28T01:30:27.188Z,0
2016-09-28T01:31:27.567Z,0
2016-09-28T01:32:27.368Z,0
2016-09-28T01:33:27.542Z,0
2016-09-28T01:34:28.149Z,0
2016-09-28T01:35:28.715Z,0
2016-09-28T01:36:28.506Z,0
2016-09-28T01:37:28.428Z,0
2016-09-28T01:38:28.633Z,0
2016-09-28T01:39:28.605Z,0
2016-09-28T01:40:29.183Z,0
2016-09-28T01:41:28.044Z,0
2016-09-28T01:42:28.022Z,0
2016-09-28T01:43:28.128Z,0
2016-09-28T01:44:29.228Z,0
2016-09-28T01:45:27.811Z,0
2016-09-28T01:46:28.511Z,0
2016-09-28T01:47:28.247Z,0
2016-09-28T01:48:28.623Z,0
2016-09-28T01:49:27.908Z,0
2016-09-28T01:50:27.920Z,0
2016-09-28T01:51:30.377Z,0
2016-09-28T01:52:28.674Z,0
2016-09-28T01:53:28.677Z,0
2016-09-28T01:54:28.691Z,0
2016-09-28T01:55:28.684Z,0
2016-09-28T01:56:28.033Z,0
2016-09-28T01:57:28.938Z,0
2016-09-28T01:58:29.141Z,0
2016-09-28T01:59:28.862Z,0
2016-09-28T02:00:28.471Z,0
2016-09-28T02:01:28.575Z,0
2016-09-28T02:02:28.455Z,0
2016-09-28T02:03:29.033Z,0
2016-09-28T02:04:28.526Z,0
2016-09-28T02:05:28.461Z,0
2016-09-28T02:06:28.575Z,0
2016-09-28T02:07:28.985Z,0
2016-09-28T02:08:29.338Z,0
2016-09-28T02:09:28.533Z,0
2016-09-28T02:10:28.192Z,0
2016-09-28T02:11:28.507Z,0
2016-09-28T02:12:30.274Z,0
2016-09-28T02:13:28.178Z,0
2016-09-28T02:14:28.339Z,0
2016-09-28T02:15:28.885Z,0
2016-09-28T02:16:29.665Z,0
2016-09-28T02:17:28.516Z,0
2016-09-28T02:18:28.755Z,0
2016-09-28T02:19:29.668Z,0
2016-09-28T02:20:29.075Z,0
2016-09-28T02:21:28.475Z,0
2016-09-28T02:22:28.596Z,0
2016-09-28T02:23:28.991Z,0
2016-09-28T02:24:30.250Z,0
2016-09-28T02:25:28.601Z,0
2016-09-28T02:26:29.793Z,0
2016-09-28T02:27:29.227Z,0
2016-09-28T02:28:28.940Z,0
2016-09-28T02:29:28.847Z,0
2016-09-28T02:30:28.792Z,0
2016-09-28T02:31:28.245Z,0
2016-09-28T02:32:29.462Z,0
2016-09-28T02:33:28.727Z,0
2016-09-28T02:34:28.876Z,0
2016-09-28T02:35:28.904Z,0
2016-09-28T02:36:30.047Z,0
2016-09-28T02:37:29.041Z,0
2016-09-28T02:38:30.207Z,0
2016-09-28T02:39:28.439Z,0
2016-09-28T02:40:30.022Z,0
2016-09-28T02:41:29.139Z,0
2016-09-28T02:42:29.502Z,0
2016-09-28T02:43:28.934Z,0
2016-09-28T02:44:29.952Z,0
2016-09-28T02:45:29.373Z,0
2016-09-28T02:46:29.552Z,0
2016-09-28T02:47:29.600Z,0
2016-09-28T02:48:28.344Z,0
2016-09-28T02:49:29.194Z,0
2016-09-28T02:50:29.221Z,0
2016-09-28T02:51:29.649Z,0
2016-09-28T02:52:29.003Z,0
2016-09-28T02:53:29.862Z,0
2016-09-28T02:54:29.304Z,0
2016-09-28T02:55:29.230Z,0
2016-09-28T02:56:28.880Z,0
2016-09-28T02:57:29.373Z,0
2016-09-28T02:58:29.429Z,0
2016-09-28T02:59:30.432Z,0
2016-09-28T03:00:29.867Z,0
2016-09-28T03:01:30.920Z,0
2016-09-28T03:02:29.037Z,0
2016-09-28T03:03:29.640Z,0
2016-09-28T03:04:30.022Z,0
2016-09-28T03:05:29.372Z,0
2016-09-28T03:06:29.584Z,0
2016-09-28T03:07:29.714Z,0
2016-09-28T03:08:30.254Z,0
2016-09-28T03:09:29.797Z,0
2016-09-28T03:10:29.571Z,0
2016-09-28T03:11:29.495Z,0
2016-09-28T03:12:29.543Z,0
2016-09-28T03:13:30.402Z,0
2016-09-28T03:14:30.122Z,0
2016-09-28T03:15:29.450Z,0
2016-09-28T03:16:31.581Z,0
2016-09-28T03:17:29.898Z,0
2016-09-28T03:18:29.802Z,0
2016-09-28T03:19:29.280Z,0
2016-09-28T03:20:30.178Z,0
2016-09-28T03:21:31.005Z,0
2016-09-28T03:22:29.821Z,0
2016-09-28T03:23:29.799Z,0
2016-09-28T03:24:29.527Z,0
2016-09-28T03:25:29.414Z,0
2016-09-28T03:26:29.529Z,0
2016-09-28T03:27:29.876Z,0
2016-09-28T03:28:30.910Z,0
2016-09-28T03:29:32.016Z,0
2016-09-28T03:30:29.682Z,0
2016-09-28T03:31:31.341Z,0
2016-09-28T03:32:30.306Z,0
2016-09-28T03:33:31.144Z,0
2016-09-28T03:34:29.417Z,0
2016-09-28T03:35:31.081Z,0
2016-09-28T03:36:30.244Z,0
2016-09-28T03:37:30.862Z,0
2016-09-28T03:38:29.616Z,0
2016-09-28T03:39:31.824Z,0
2016-09-28T03:40:30.779Z,0
2016-09-28T03:41:31.109Z,0
2016-09-28T03:42:30.401Z,0
2016-09-28T03:43:30.910Z,0
2016-09-28T03:44:30.953Z,0
2016-09-28T03:45:30.185Z,0
2016-09-28T03:46:30.128Z,0
2016-09-28T03:47:31.202Z,0
2016-09-28T03:48:30.678Z,0
2016-09-28T03:49:29.901Z,0
2016-09-28T03:50:31.155Z,0
2016-09-28T03:51:31.026Z,0
2016-09-28T03:52:30.245Z,0
2016-09-28T03:53:30.104Z,0
2016-09-28T03:54:30.408Z,0
2016-09-28T03:55:30.661Z,0
2016-09-28T03:56:29.867Z,0
2016-09-28T03:57:30.340Z,0
2016-09-28T03:58:31.941Z,0
2016-09-28T03:59:30.345Z,0
2016-09-28T04:00:31.110Z,0
2016-09-28T04:01:30.817Z,0
2016-09-28T04:02:30.647Z,0
2016-09-28T04:03:31.509Z,0
2016-09-28T04:04:30.987Z,0
2016-09-28T04:05:30.941Z,0
2016-09-28T04:06:30.942Z,0
2016-09-28T04:07:30.910Z,0
2016-09-28T04:08:31.520Z,0
2016-09-28T04:09:30.419Z,0
2016-09-28T04:10:30.009Z,0
2016-09-28T04:11:31.428Z,0
2016-09-28T04:12:31.276Z,0
2016-09-28T04:13:31.817Z,0
2016-09-28T04:14:30.503Z,0
2016-09-28T04:15:30.110Z,0
2016-09-28T04:16:30.936Z,0
2016-09-28T04:17:30.223Z,0
2016-09-28T04:18:32.357Z,0
2016-09-28T04:19:31.998Z,0
2016-09-28T04:20:31.142Z,0
2016-09-28T04:21:31.841Z,0
2016-09-28T04:22:31.194Z,0
2016-09-28T04:23:32.145Z,0
2016-09-28T04:24:32.234Z,0
2016-09-28T04:25:31.258Z,0
2016-09-28T04:26:31.252Z,0
2016-09-28T04:27:32.228Z,0
2016-09-28T04:28:32.199Z,0
2016-09-28T04:29:31.453Z,0
2016-09-28T04:30:31.088Z,0
2016-09-28T04:31:31.394Z,0
2016-09-28T04:32:32.280Z,0
2016-09-28T04:33:32.019Z,0
2016-09-28T04:34:32.228Z,0
2016-09-28T04:35:31.338Z,0
2016-09-28T04:36:31.918Z,0
2016-09-28T04:37:31.024Z,0
2016-09-28T04:38:31.164Z,0
2016-09-28T04:39:31.568Z,0
2016-09-28T04:40:31.336Z,0
2016-09-28T04:41:32.200Z,0
2016-09-28T04:42:31.990Z,0
2016-09-28T04:43:31.343Z,0
2016-09-28T04:44:32.175Z,0
2016-09-28T04:45:31.956Z,0
2016-09-28T04:46:31.121Z,0
2016-09-28T04:47:31.549Z,0
2016-09-28T04:48:32.507Z,0
2016-09-28T04:49:32.463Z,0
2016-09-28T04:50:31.881Z,0
2016-09-28T04:51:31.968Z,0
2016-09-28T04:52:32.367Z,0
2016-09-28T04:53:31.683Z,0
2016-09-28T04:54:31.423Z,0
2016-09-28T04:55:31.455Z,0
2016-09-28T04:56:32.174Z,0
2016-09-28T04:57:32.370Z,0
2016-09-28T04:58:31.560Z,0
2016-09-28T04:59:32.074Z,0
2016-09-28T05:00:31.355Z,0
2016-09-28T05:01:31.993Z,0
2016-09-28T05:02:31.506Z,0
2016-09-28T05:03:32.370Z,0
2016-09-28T05:04:31.833Z,0
2016-09-28T05:05:31.938Z,0
2016-09-28T05:06:31.833Z,0
2016-09-28T05:07:31.334Z,0
2016-09-28T05:08:32.410Z,0
2016-09-28T05:09:31.880Z,5
2016-09-28T05:10:33.584Z,5
2016-09-28T05:11:31.849Z,5
2016-09-28T05:12:32.073Z,5
2016-09-28T05:13:32.222Z,5
2016-09-28T05:14:32.706Z,5
2016-09-28T05:15:32.584Z,5
2016-09-28T05:16:31.394Z,10
2016-09-28T05:17:31.126Z,10
2016-09-28T05:18:30.842Z,10
2016-09-28T05:19:30.978Z,10
2016-09-28T05:20:32.235Z,10
2016-09-28T05:21:32.804Z,15
2016-09-28T05:22:33.102Z,15
2016-09-28T05:23:32.118Z,15
2016-09-28T05:24:32.527Z,15
2016-09-28T05:25:33.246Z,20
2016-09-28T05:26:32.666Z,20
2016-09-28T05:27:32.774Z,20
2016-09-28T05:28:32.455Z,25
2016-09-28T05:29:34.261Z,25
2016-09-28T05:30:31.976Z,25
2016-09-28T05:31:32.260Z,25
2016-09-28T05:32:32.807Z,30
2016-09-28T05:33:32.308Z,30
2016-09-28T05:34:32.072Z,30
2016-09-28T05:35:31.532Z,35
2016-09-28T05:36:33.575Z,35
2016-09-28T05:37:32.107Z,35
2016-09-28T05:38:31.906Z,35
2016-09-28T05:39:32.753Z,40
2016-09-28T05:40:33.287Z,40
2016-09-28T05:41:32.974Z,40
2016-09-28T05:42:32.914Z,40
2016-09-28T05:43:32.468Z,40
2016-09-28T05:44:32.654Z,35
2016-09-28T05:45:33.986Z,35
2016-09-28T05:46:32.269Z,35
2016-09-28T05:47:34.189Z,35
2016-09-28T05:48:32.804Z,35
2016-09-28T05:49:33.260Z,35
2016-09-28T05:50:32.950Z,35
2016-09-28T05:51:33.323Z,35
2016-09-28T05:52:33.323Z,40
2016-09-28T05:53:33.150Z,40
2016-09-28T05:54:32.453Z,45
2016-09-28T05:55:33.136Z,55
2016-09-28T05:56:32.765Z,60
2016-09-28T05:57:32.484Z,65
2016-09-28T05:58:33.177Z,70
2016-09-28T05:59:33.753Z,75
2016-09-28T06:00:33.238Z,75
2016-09-28T06:01:32.878Z,80
2016-09-28T06:02:33.469Z,80
2016-09-28T06:03:33.206Z,85
2016-09-28T06:04:33.329Z,90
2016-09-28T06:05:33.673Z,95
2016-09-28T06:06:32.345Z,95
2016-09-28T06:07:33.054Z,95
2016-09-28T06:08:33.982Z,90
2016-09-28T06:09:33.540Z,85
2016-09-28T06:10:33.048Z,75
2016-09-28T06:11:33.199Z,70
2016-09-28T06:12:33.141Z,70
2016-09-28T06:13:34.004Z,70
2016-09-28T06:14:32.159Z,75
2016-09-28T06:15:33.467Z,80
2016-09-28T06:16:33.086Z,85
2016-09-28T06:17:32.973Z,90
2016-09-28T06:18:32.685Z,100
2016-09-28T06:19:33.824Z,105
2016-09-28T06:20:32.958Z,115
2016-09-28T06:21:33.005Z,120
2016-09-28T06:22:33.517Z,135
2016-09-28T06:23:33.669Z,150
2016-09-28T06:24:34.211Z,170
2016-09-28T06:25:34.417Z,165
2016-09-28T06:26:33.969Z,165
2016-09-28T06:27:33.982Z,175
2016-09-28T06:28:33.218Z,175
2016-09-28T06:29:34.003Z,175
2016-09-28T06:30:33.713Z,175
2016-09-28T06:31:33.548Z,180
2016-09-28T06:32:34.219Z,195
2016-09-28T06:33:34.002Z,210
2016-09-28T06:34:33.558Z,210
2016-09-28T06:35:33.873Z,185
2016-09-28T06:36:34.044Z,180
2016-09-28T06:37:35.435Z,175
2016-09-28T06:38:34.365Z,210
2016-09-28T06:39:34.356Z,255
2016-09-28T06:40:33.489Z,255
2016-09-28T06:41:33.851Z,260
2016-09-28T06:42:33.070Z,270
2016-09-28T06:43:34.271Z,270
2016-09-28T06:44:34.289Z,265
2016-09-28T06:45:33.739Z,255
2016-09-28T06:46:33.988Z,265
2016-09-28T06:47:33.037Z,270
2016-09-28T06:48:33.398Z,295
2016-09-28T06:49:33.402Z,305
2016-09-28T06:50:33.774Z,305
2016-09-28T06:51:34.342Z,310
2016-09-28T06:52:34.724Z,305
2016-09-28T06:53:33.681Z,290
2016-09-28T06:54:32.932Z,270
2016-09-28T06:55:33.897Z,255
2016-09-28T06:56:33.874Z,275
2016-09-28T06:57:35.188Z,305
2016-09-28T06:58:34.334Z,285
2016-09-28T06:59:33.997Z,260
2016-09-28T07:00:34.320Z,205
2016-09-28T07:01:35.051Z,190
2016-09-28T07:02:34.526Z,235
2016-09-28T07:03:34.298Z,210
2016-09-28T07:04:34.004Z,200
2016-09-28T07:05:33.799Z,255
2016-09-28T07:06:34.758Z,265
2016-09-28T07:07:34.856Z,270
2016-09-28T07:08:34.371Z,315
2016-09-28T07:09:34.990Z,305
2016-09-28T07:10:34.028Z,280
2016-09-28T07:11:36.066Z,275
2016-09-28T07:12:35.557Z,285
2016-09-28T07:13:34.591Z,240
2016-09-28T07:14:33.645Z,220
2016-09-28T07:15:33.757Z,275
2016-09-28T07:16:34.381Z,280
2016-09-28T07:17:33.885Z,275
2016-09-28T07:18:34.109Z,280
2016-09-28T07:19:35.219Z,280
2016-09-28T07:20:35.660Z,280
2016-09-28T07:21:34.553Z,280
2016-09-28T07:22:35.166Z,280
2016-09-28T07:23:34.487Z,280
2016-09-28T07:24:36.020Z,290
2016-09-28T07:25:35.537Z,305
2016-09-28T07:26:35.711Z,320
2016-09-28T07:27:34.571Z,340
2016-09-28T07:28:34.979Z,360
2016-09-28T07:29:34.315Z,380
2016-09-28T07:30:35.010Z,410
2016-09-28T07:31:34.502Z,450
2016-09-28T07:32:34.166Z,485
2016-09-28T07:33:34.525Z,515
2016-09-28T07:34:35.091Z,495
2016-09-28T07:35:34.830Z,460
2016-09-28T07:36:35.256Z,450
2016-09-28T07:37:34.384Z,445
2016-09-28T07:38:35.601Z,450
2016-09-28T07:39:35.467Z,430
2016-09-28T07:40:34.765Z,415
2016-09-28T07:41:34.900Z,405
2016-09-28T07:42:35.517Z,415
2016-09-28T07:43:35.188Z,420
2016-09-28T07:44:34.973Z,430
2016-09-28T07:45:34.646Z,420
2016-09-28T07:46:35.743Z,410
2016-09-28T07:47:34.974Z,395
2016-09-28T07:48:36.607Z,370
2016-09-28T07:49:35.206Z,365
2016-09-28T07:50:36.109Z,380
2016-09-28T07:51:34.769Z,405
2016-09-28T07:52:35.761Z,410
2016-09-28T07:53:35.067Z,390
2016-09-28T07:54:35.095Z,390
2016-09-28T07:55:36.646Z,370
2016-09-28T07:56:35.226Z,350
2016-09-28T07:57:35.445Z,360
2016-09-28T07:58:35.210Z,355
2016-09-28T07:59:35.190Z,365
2016-09-28T08:00:36.052Z,400
2016-09-28T08:01:36.184Z,405
2016-09-28T08:02:36.390Z,405
2016-09-28T08:03:35.982Z,405
2016-09-28T08:04:35.725Z,445
2016-09-28T08:05:34.827Z,465
2016-09-28T08:06:36.818Z,520
2016-09-28T08:07:35.742Z,545
2016-09-28T08:08:35.587Z,535
2016-09-28T08:09:36.529Z,575
2016-09-28T08:10:36.171Z,565
2016-09-28T08:11:35.725Z,480
2016-09-28T08:12:36.970Z,415
2016-09-28T08:13:36.002Z,360
2016-09-28T08:14:36.174Z,340
2016-09-28T08:15:35.875Z,395
2016-09-28T08:16:36.450Z,450
2016-09-28T08:17:35.259Z,455
2016-09-28T08:18:36.387Z,535
2016-09-28T08:19:35.701Z,555
2016-09-28T08:20:36.641Z,590
2016-09-28T08:21:35.999Z,585
2016-09-28T08:22:36.399Z,600
2016-09-28T08:23:35.883Z,655
2016-09-28T08:24:34.691Z,710
2016-09-28T08:25:36.127Z,725
2016-09-28T08:26:36.126Z,765
2016-09-28T08:27:36.374Z,665
2016-09-28T08:28:36.686Z,575
2016-09-28T08:29:35.820Z,575
2016-09-28T08:30:35.722Z,510
2016-09-28T08:31:37.060Z,545
2016-09-28T08:32:37.371Z,605
2016-09-28T08:33:36.604Z,730
2016-09-28T08:34:36.021Z,765
2016-09-28T08:35:36.132Z,895
2016-09-28T08:36:36.356Z,890
2016-09-28T08:37:37.395Z,810
2016-09-28T08:38:36.846Z,610
2016-09-28T08:39:35.846Z,630
2016-09-28T08:40:36.395Z,670
2016-09-28T08:41:36.846Z,635
2016-09-28T08:42:36.271Z,640
2016-09-28T08:43:36.302Z,615
2016-09-28T08:44:36.616Z,645
2016-09-28T08:45:36.199Z,620
2016-09-28T08:46:36.129Z,540
2016-09-28T08:47:36.349Z,675
2016-09-28T08:48:36.562Z,745
2016-09-28T08:49:36.064Z,695
2016-09-28T08:50:36.838Z,815
2016-09-28T08:51:37.512Z,1065
2016-09-28T08:52:36.654Z,910
2016-09-28T08:53:37.291Z,595
2016-09-28T08:54:36.538Z,510
2016-09-28T08:55:38.609Z,420
2016-09-28T08:56:36.673Z,360
2016-09-28T08:57:37.019Z,335
2016-09-28T08:58:37.051Z,330
2016-09-28T08:59:36.158Z,360
2016-09-28T09:00:36.940Z,410
2016-09-28T09:01:37.167Z,440
2016-09-28T09:02:36.149Z,470
2016-09-28T09:03:37.507Z,505
2016-09-28T09:04:38.197Z,530
2016-09-28T09:05:36.844Z,530
2016-09-28T09:06:37.470Z,515
2016-09-28T09:07:36.186Z,475
2016-09-28T09:08:36.550Z,440
2016-09-28T09:09:36.408Z,455
2016-09-28T09:10:37.482Z,455
2016-09-28T09:11:37.006Z,500
2016-09-28T09:12:36.760Z,465
2016-09-28T09:13:37.108Z,420
2016-09-28T09:14:36.419Z,465
2016-09-28T09:15:37.035Z,590
2016-09-28T09:16:37.042Z,610
2016-09-28T09:17:36.987Z,550
2016-09-28T09:18:37.075Z,500
2016-09-28T09:19:37.038Z,500
2016-09-28T09:20:37.186Z,545
2016-09-28T09:21:38.144Z,645
2016-09-28T09:22:37.560Z,665
2016-09-28T09:23:36.835Z,600
2016-09-28T09:24:37.448Z,620
2016-09-28T09:25:37.206Z,685
2016-09-28T09:26:37.467Z,640
2016-09-28T09:27:36.741Z,600
2016-09-28T09:28:38.227Z,605
2016-09-28T09:29:37.639Z,715
2016-09-28T09:30:38.135Z,740
2016-09-28T09:31:36.843Z,735
2016-09-28T09:32:37.877Z,705
2016-09-28T09:33:37.027Z,745
2016-09-28T09:34:37.803Z,755
2016-09-28T09:35:37.594Z,715
2016-09-28T09:36:37.456Z,665
2016-09-28T09:37:37.933Z,695
2016-09-28T09:38:37.652Z,685
2016-09-28T09:39:38.558Z,675
2016-09-28T09:40:37.814Z,640
2016-09-28T09:41:37.429Z,650
2016-09-28T09:42:39.408Z,760
2016-09-28T09:43:38.172Z,835
2016-09-28T09:44:37.489Z,830
2016-09-28T09:45:37.496Z,770
2016-09-28T09:46:37.928Z,690
2016-09-28T09:47:38.892Z,715
2016-09-28T09:48:37.372Z,780
2016-09-28T09:49:37.783Z,630
2016-09-28T09:50:37.917Z,605
2016-09-28T09:51:38.259Z,590
2016-09-28T09:52:38.575Z,525
2016-09-28T09:53:37.013Z,540
2016-09-28T09:54:39.302Z,635
2016-09-28T09:55:37.444Z,685
2016-09-28T09:56:38.051Z,665
2016-09-28T09:57:37.744Z,770
2016-09-28T09:58:38.018Z,750
2016-09-28T09:59:38.299Z,685
2016-09-28T10:00:38.745Z,625
2016-09-28T10:01:37.364Z,595
2016-09-28T10:02:38.078Z,630
2016-09-28T10:03:38.161Z,615
2016-09-28T10:04:39.164Z,595
2016-09-28T10:05:38.293Z,665
2016-09-28T10:06:37.707Z,620
2016-09-28T10:07:39.055Z,585
2016-09-28T10:08:38.690Z,600
2016-09-28T10:09:37.703Z,585
2016-09-28T10:10:37.427Z,600
2016-09-28T10:11:38.220Z,650
2016-09-28T10:12:38.162Z,610
2016-09-28T10:13:38.853Z,540
2016-09-28T10:14:39.457Z,510
2016-09-28T10:15:37.848Z,495
2016-09-28T10:16:38.490Z,460
2016-09-28T10:17:38.285Z,505
2016-09-28T10:18:39.024Z,525
2016-09-28T10:19:38.534Z,620
2016-09-28T10:20:39.313Z,590
2016-09-28T10:21:37.879Z,560
2016-09-28T10:22:38.495Z,555
2016-09-28T10:23:37.827Z,550
2016-09-28T10:24:38.937Z,530
2016-09-28T10:25:37.488Z,565
2016-09-28T10:26:38.527Z,555
2016-09-28T10:27:38.703Z,525
2016-09-28T10:28:38.502Z,505
2016-09-28T10:29:38.139Z,500
2016-09-28T10:30:38.853Z,565
2016-09-28T10:31:38.023Z,585
2016-09-28T10:32:38.397Z,465
2016-09-28T10:33:38.397Z,450
2016-09-28T10:34:38.362Z,485
2016-09-28T10:35:38.393Z,510
2016-09-28T10:36:39.186Z,485
2016-09-28T10:37:39.199Z,485
2016-09-28T10:38:39.273Z,500
2016-09-28T10:39:39.216Z,505
2016-09-28T10:40:39.322Z,520
2016-09-28T10:41:40.282Z,480
2016-09-28T10:42:38.941Z,465
2016-09-28T10:43:39.761Z,455
2016-09-28T10:44:39.021Z,460
2016-09-28T10:45:39.682Z,495
2016-09-28T10:46:39.291Z,495
2016-09-28T10:47:39.397Z,505
2016-09-28T10:48:39.322Z,590
2016-09-28T10:49:39.244Z,640
2016-09-28T10:50:38.827Z,620
2016-09-28T10:51:40.170Z,575
2016-09-28T10:52:39.454Z,595
2016-09-28T10:53:39.668Z,655
2016-09-28T10:54:39.132Z,715
2016-09-28T10:55:40.450Z,725
2016-09-28T10:56:39.664Z,670
2016-09-28T10:57:38.994Z,605
2016-09-28T10:58:39.612Z,590
2016-09-28T10:59:38.920Z,645
2016-09-28T11:00:39.653Z,670
2016-09-28T11:01:38.570Z,655
2016-09-28T11:02:40.361Z,595
2016-09-28T11:03:39.684Z,520
2016-09-28T11:04:39.668Z,530
2016-09-28T11:05:39.885Z,485
2016-09-28T11:06:40.525Z,470
2016-09-28T11:07:40.864Z,510
2016-09-28T11:08:39.307Z,505
2016-09-28T11:09:40.151Z,515
2016-09-28T11:10:40.547Z,480
2016-09-28T11:11:39.610Z,450
2016-09-28T11:12:40.085Z,445
2016-09-28T11:13:38.999Z,465
2016-09-28T11:14:39.301Z,450
2016-09-28T11:15:39.542Z,445
2016-09-28T11:16:39.895Z,480
2016-09-28T11:17:39.813Z,430
2016-09-28T11:18:39.923Z,395
2016-09-28T11:19:40.360Z,420
2016-09-28T11:20:40.174Z,450
2016-09-28T11:21:40.441Z,465
2016-09-28T11:22:39.921Z,485
2016-09-28T11:23:40.398Z,440
2016-09-28T11:24:39.453Z,450
2016-09-28T11:25:39.876Z,450
2016-09-28T11:26:39.476Z,425
2016-09-28T11:27:40.061Z,475
2016-09-28T11:28:40.155Z,485
2016-09-28T11:29:39.690Z,515
2016-09-28T11:30:40.997Z,510
2016-09-28T11:31:40.622Z,510
2016-09-28T11:32:39.583Z,500
2016-09-28T11:33:40.283Z,495
2016-09-28T11:34:40.942Z,515
2016-09-28T11:35:40.772Z,510
2016-09-28T11:36:40.111Z,505
2016-09-28T11:37:39.657Z,530
2016-09-28T11:38:40.524Z,590
2016-09-28T11:39:40.039Z,545
2016-09-28T11:40:40.638Z,520
2016-09-28T11:41:40.505Z,610
2016-09-28T11:42:41.931Z,735
2016-09-28T11:43:39.863Z,790
2016-09-28T11:44:41.204Z,760
2016-09-28T11:45:41.222Z,785
2016-09-28T11:46:41.072Z,810
2016-09-28T11:47:41.805Z,830
2016-09-28T11:48:40.425Z,910
2016-09-28T11:49:41.152Z,955
2016-09-28T11:50:41.463Z,990
2016-09-28T11:51:40.609Z,925
2016-09-28T11:52:41.002Z,895
2016-09-28T11:53:40.550Z,850
2016-09-28T11:54:40.188Z,885
2016-09-28T11:55:40.554Z,810
2016-09-28T11:56:40.960Z,810
2016-09-28T11:57:41.862Z,890
2016-09-28T11:58:40.676Z,870
2016-09-28T11:59:40.728Z,875
2016-09-28T12:00:41.287Z,970
2016-09-28T12:01:40.558Z,955
2016-09-28T12:02:40.933Z,940
2016-09-28T12:03:41.179Z,965
2016-09-28T12:04:40.488Z,940
2016-09-28T12:05:40.947Z,930
2016-09-28T12:06:40.309Z,995
2016-09-28T12:07:40.790Z,1075
2016-09-28T12:08:40.649Z,1035
2016-09-28T12:09:40.600Z,1020
2016-09-28T12:10:41.051Z,900
2016-09-28T12:11:40.805Z,880
2016-09-28T12:12:41.379Z,1095
2016-09-28T12:13:41.752Z,1010
2016-09-28T12:14:41.090Z,995
2016-09-28T12:15:42.188Z,1075
2016-09-28T12:16:40.634Z,1115
2016-09-28T12:17:42.165Z,1115
2016-09-28T12:18:41.242Z,1065
2016-09-28T12:19:42.344Z,1070
2016-09-28T12:20:41.381Z,1045
2016-09-28T12:21:41.778Z,1120
2016-09-28T12:22:41.659Z,1165
2016-09-28T12:23:42.245Z,1210
2016-09-28T12:24:41.105Z,1245
2016-09-28T12:25:41.430Z,1270
2016-09-28T12:26:41.925Z,1155
2016-09-28T12:27:41.000Z,1080
2016-09-28T12:28:41.210Z,1050
2016-09-28T12:29:40.561Z,1005
2016-09-28T12:30:41.044Z,925
2016-09-28T12:31:41.054Z,845
2016-09-28T12:32:41.482Z,830
2016-09-28T12:33:41.908Z,770
2016-09-28T12:34:41.575Z,705
2016-09-28T12:35:42.477Z,665
2016-09-28T12:36:40.895Z,690
2016-09-28T12:37:41.297Z,725
2016-09-28T12:38:42.189Z,730
2016-09-28T12:39:41.698Z,750
2016-09-28T12:40:42.658Z,770
2016-09-28T12:41:41.130Z,780
2016-09-28T12:42:41.828Z,840
2016-09-28T12:43:41.672Z,905
2016-09-28T12:44:42.413Z,885
2016-09-28T12:45:41.846Z,875
2016-09-28T12:46:41.434Z,880
2016-09-28T12:47:41.574Z,890
2016-09-28T12:48:41.615Z,920
2016-09-28T12:49:41.658Z,905
2016-09-28T12:50:42.151Z,905
2016-09-28T12:51:42.328Z,910
2016-09-28T12:52:42.115Z,900
2016-09-28T12:53:41.197Z,910
2016-09-28T12:54:42.170Z,935
2016-09-28T12:55:42.132Z,945
2016-09-28T12:56:42.193Z,945
2016-09-28T12:57:41.892Z,940
2016-09-28T12:58:42.614Z,935
2016-09-28T12:59:41.441Z,930
2016-09-28T13:00:41.794Z,910
2016-09-28T13:01:41.561Z,900
2016-09-28T13:02:42.105Z,885
2016-09-28T13:03:42.075Z,885
2016-09-28T13:04:42.276Z,890
2016-09-28T13:05:42.400Z,875
2016-09-28T13:06:42.301Z,855
2016-09-28T13:07:42.381Z,845
2016-09-28T13:08:41.828Z,840
2016-09-28T13:09:42.415Z,840
2016-09-28T13:10:43.628Z,845
2016-09-28T13:11:42.637Z,850
2016-09-28T13:12:42.467Z,870
2016-09-28T13:13:43.185Z,880
2016-09-28T13:14:42.294Z,850
2016-09-28T13:15:42.696Z,825
2016-09-28T13:16:42.283Z,815
2016-09-28T13:17:42.871Z,810
2016-09-28T13:18:42.679Z,810
2016-09-28T13:19:42.694Z,815
2016-09-28T13:20:42.950Z,815
2016-09-28T13:21:42.690Z,825
2016-09-28T13:22:43.833Z,830
2016-09-28T13:23:43.142Z,845
2016-09-28T13:24:43.513Z,845
2016-09-28T13:25:43.280Z,860
2016-09-28T13:26:43.165Z,860
2016-09-28T13:27:43.407Z,845
2016-09-28T13:28:44.214Z,845
2016-09-28T13:29:42.528Z,860
2016-09-28T13:30:42.537Z,855
2016-09-28T13:31:42.399Z,845
2016-09-28T13:32:43.754Z,835
2016-09-28T13:33:42.829Z,845
2016-09-28T13:34:43.754Z,865
2016-09-28T13:35:43.333Z,865
2016-09-28T13:36:42.973Z,870
2016-09-28T13:37:43.592Z,895
2016-09-28T13:38:43.533Z,905
2016-09-28T13:39:43.087Z,945
2016-09-28T13:40:43.785Z,940
2016-09-28T13:41:44.030Z,925
2016-09-28T13:42:43.624Z,895
2016-09-28T13:43:42.756Z,870
2016-09-28T13:44:44.189Z,855
2016-09-28T13:45:43.566Z,815
2016-09-28T13:46:43.612Z,770
2016-09-28T13:47:43.441Z,740
2016-09-28T13:48:43.135Z,705
2016-09-28T13:49:43.517Z,675
2016-09-28T13:50:44.230Z,650
2016-09-28T13:51:44.442Z,630
2016-09-28T13:52:43.420Z,610
2016-09-28T13:53:44.301Z,600
2016-09-28T13:54:44.307Z,590
2016-09-28T13:55:44.210Z,595
2016-09-28T13:56:44.610Z,605
2016-09-28T13:57:43.887Z,600
2016-09-28T13:58:43.896Z,565
2016-09-28T13:59:43.066Z,530
2016-09-28T14:00:43.888Z,515
2016-09-28T14:01:43.835Z,520
2016-09-28T14:02:44.107Z,535
2016-09-28T14:03:43.946Z,560
2016-09-28T14:04:43.980Z,590
2016-09-28T14:05:43.681Z,620
2016-09-28T14:06:44.076Z,640
2016-09-28T14:07:43.789Z,640
2016-09-28T14:08:43.199Z,615
2016-09-28T14:09:44.098Z,555